sensor_id;sensor_type;location;lat;lon;timestamp;P1;durP1;ratioP1;P2;durP2;ratioP2
3259;SDS011;22469;48.150;14.004;2022-11-12T00:01:05;26.30;;;12.80;;
3259;SDS011;22469;48.150;14.004;2022-11-12T00:03:32;30.63;;;11.23;;
3259;SDS011;22469;48.150;14.004;2022-11-12T00:05:59;30.80;;;10.40;;
3259;SDS011;22469;48.150;14.004;2022-11-12T00:08:26;26.53;;;10.47;;
3259;SDS011;22469;48.150;14.004;2022-11-12T00:10:53;20.57;;;9.10;;
3259;SDS011;22469;48.150;14.004;2022-11-12T00:13:20;15.33;;;9.37;;
3259;SDS011;22469;48.150;14.004;2022-11-12T00:15:47;20.80;;;9.10;;
3259;SDS011;22469;48.150;14.004;2022-11-12T00:18:14;12.67;;;9.17;;
3259;SDS011;22469;48.150;14.004;2022-11-12T00:20:41;18.00;;;8.70;;
3259;SDS011;22469;48.150;14.004;2022-11-12T00:23:10;15.13;;;7.77;;
3259;SDS011;22469;48.150;14.004;2022-11-12T00:25:37;25.67;;;11.20;;
3259;SDS011;22469;48.150;14.004;2022-11-12T00:28:04;26.90;;;9.30;;
3259;SDS011;22469;48.150;14.004;2022-11-12T00:30:36;20.37;;;10.33;;
3259;SDS011;22469;48.150;14.004;2022-11-12T00:33:05;42.77;;;12.87;;
3259;SDS011;22469;48.150;14.004;2022-11-12T00:35:33;24.60;;;10.17;;
3259;SDS011;22469;48.150;14.004;2022-11-12T00:38:00;15.50;;;9.97;;
3259;SDS011;22469;48.150;14.004;2022-11-12T00:40:27;21.53;;;9.77;;
3259;SDS011;22469;48.150;14.004;2022-11-12T00:42:55;46.53;;;11.30;;
3259;SDS011;22469;48.150;14.004;2022-11-12T00:45:23;22.40;;;10.57;;
3259;SDS011;22469;48.150;14.004;2022-11-12T00:47:53;37.23;;;10.53;;
3259;SDS011;22469;48.150;14.004;2022-11-12T00:50:22;31.20;;;9.37;;
3259;SDS011;22469;48.150;14.004;2022-11-12T00:52:53;44.00;;;10.77;;
3259;SDS011;22469;48.150;14.004;2022-11-12T00:55:20;24.03;;;8.17;;
3259;SDS011;22469;48.150;14.004;2022-11-12T00:57:47;23.77;;;9.47;;
3259;SDS011;22469;48.150;14.004;2022-11-12T01:00:15;64.23;;;11.57;;
3259;SDS011;22469;48.150;14.004;2022-11-12T01:02:44;19.20;;;8.60;;
3259;SDS011;22469;48.150;14.004;2022-11-12T01:05:17;19.37;;;10.03;;
3259;SDS011;22469;48.150;14.004;2022-11-12T01:07:45;41.57;;;10.90;;
3259;SDS011;22469;48.150;14.004;2022-11-12T01:10:20;44.27;;;12.80;;
3259;SDS011;22469;48.150;14.004;2022-11-12T01:12:47;23.03;;;8.43;;
3259;SDS011;22469;48.150;14.004;2022-11-12T01:15:14;24.73;;;9.03;;
3259;SDS011;22469;48.150;14.004;2022-11-12T01:17:41;18.73;;;9.03;;
3259;SDS011;22469;48.150;14.004;2022-11-12T01:20:08;31.07;;;9.20;;
3259;SDS011;22469;48.150;14.004;2022-11-12T01:22:35;35.60;;;10.50;;
3259;SDS011;22469;48.150;14.004;2022-11-12T01:25:02;53.63;;;12.57;;
3259;SDS011;22469;48.150;14.004;2022-11-12T01:27:29;38.83;;;10.43;;
3259;SDS011;22469;48.150;14.004;2022-11-12T01:29:56;37.73;;;10.20;;
3259;SDS011;22469;48.150;14.004;2022-11-12T01:32:24;22.13;;;8.60;;
3259;SDS011;22469;48.150;14.004;2022-11-12T01:34:53;125.60;;;19.10;;
3259;SDS011;22469;48.150;14.004;2022-11-12T01:37:20;19.17;;;8.87;;
3259;SDS011;22469;48.150;14.004;2022-11-12T01:39:47;8.60;;;7.70;;
3259;SDS011;22469;48.150;14.004;2022-11-12T01:42:14;92.63;;;17.23;;
3259;SDS011;22469;48.150;14.004;2022-11-12T01:44:42;31.47;;;9.00;;
3259;SDS011;22469;48.150;14.004;2022-11-12T01:47:21;40.30;;;10.47;;
3259;SDS011;22469;48.150;14.004;2022-11-12T01:49:53;14.37;;;8.87;;
3259;SDS011;22469;48.150;14.004;2022-11-12T01:52:35;26.80;;;9.50;;
3259;SDS011;22469;48.150;14.004;2022-11-12T01:55:10;47.03;;;11.83;;
3259;SDS011;22469;48.150;14.004;2022-11-12T01:57:44;86.07;;;16.83;;
3259;SDS011;22469;48.150;14.004;2022-11-12T02:00:17;44.23;;;12.37;;
3259;SDS011;22469;48.150;14.004;2022-11-12T02:02:45;19.17;;;9.70;;
3259;SDS011;22469;48.150;14.004;2022-11-12T02:05:19;13.00;;;8.57;;
3259;SDS011;22469;48.150;14.004;2022-11-12T02:07:48;19.20;;;9.40;;
3259;SDS011;22469;48.150;14.004;2022-11-12T02:10:17;28.57;;;9.10;;
3259;SDS011;22469;48.150;14.004;2022-11-12T02:12:45;26.60;;;9.17;;
3259;SDS011;22469;48.150;14.004;2022-11-12T02:15:33;41.33;;;10.70;;
3259;SDS011;22469;48.150;14.004;2022-11-12T02:18:00;14.03;;;8.47;;
3259;SDS011;22469;48.150;14.004;2022-11-12T02:20:31;31.53;;;9.10;;
3259;SDS011;22469;48.150;14.004;2022-11-12T02:23:00;22.90;;;8.60;;
3259;SDS011;22469;48.150;14.004;2022-11-12T02:25:28;22.90;;;8.30;;
3259;SDS011;22469;48.150;14.004;2022-11-12T02:27:55;31.33;;;9.90;;
3259;SDS011;22469;48.150;14.004;2022-11-12T02:30:38;39.50;;;8.77;;
3259;SDS011;22469;48.150;14.004;2022-11-12T02:33:11;63.03;;;11.90;;
3259;SDS011;22469;48.150;14.004;2022-11-12T02:35:38;30.83;;;8.77;;
3259;SDS011;22469;48.150;14.004;2022-11-12T02:38:06;33.87;;;10.40;;
3259;SDS011;22469;48.150;14.004;2022-11-12T02:40:34;34.17;;;9.93;;
3259;SDS011;22469;48.150;14.004;2022-11-12T02:43:01;28.30;;;8.87;;
3259;SDS011;22469;48.150;14.004;2022-11-12T02:45:29;25.97;;;9.77;;
3259;SDS011;22469;48.150;14.004;2022-11-12T02:47:57;33.17;;;8.20;;
3259;SDS011;22469;48.150;14.004;2022-11-12T02:50:24;69.27;;;11.97;;
3259;SDS011;22469;48.150;14.004;2022-11-12T02:52:51;72.30;;;13.27;;
3259;SDS011;22469;48.150;14.004;2022-11-12T02:55:18;61.13;;;10.10;;
3259;SDS011;22469;48.150;14.004;2022-11-12T02:57:45;36.10;;;11.23;;
3259;SDS011;22469;48.150;14.004;2022-11-12T03:00:12;60.10;;;12.60;;
3259;SDS011;22469;48.150;14.004;2022-11-12T03:02:40;58.90;;;12.30;;
3259;SDS011;22469;48.150;14.004;2022-11-12T03:05:25;42.77;;;11.47;;
3259;SDS011;22469;48.150;14.004;2022-11-12T03:07:55;26.63;;;9.30;;
3259;SDS011;22469;48.150;14.004;2022-11-12T03:10:27;30.03;;;9.23;;
3259;SDS011;22469;48.150;14.004;2022-11-12T03:12:55;77.40;;;13.50;;
3259;SDS011;22469;48.150;14.004;2022-11-12T03:15:25;32.40;;;9.40;;
3259;SDS011;22469;48.150;14.004;2022-11-12T03:17:55;57.00;;;10.10;;
3259;SDS011;22469;48.150;14.004;2022-11-12T03:20:25;39.17;;;9.47;;
3259;SDS011;22469;48.150;14.004;2022-11-12T03:22:54;49.60;;;9.93;;
3259;SDS011;22469;48.150;14.004;2022-11-12T03:25:23;27.70;;;10.83;;
3259;SDS011;22469;48.150;14.004;2022-11-12T03:27:58;87.60;;;13.10;;
3259;SDS011;22469;48.150;14.004;2022-11-12T03:30:27;20.97;;;8.60;;
3259;SDS011;22469;48.150;14.004;2022-11-12T03:32:57;32.67;;;10.27;;
3259;SDS011;22469;48.150;14.004;2022-11-12T03:35:24;26.37;;;8.90;;
3259;SDS011;22469;48.150;14.004;2022-11-12T03:37:52;26.77;;;8.33;;
3259;SDS011;22469;48.150;14.004;2022-11-12T03:40:19;21.60;;;8.50;;
3259;SDS011;22469;48.150;14.004;2022-11-12T03:42:46;14.20;;;8.00;;
3259;SDS011;22469;48.150;14.004;2022-11-12T03:45:16;21.63;;;7.50;;
3259;SDS011;22469;48.150;14.004;2022-11-12T03:47:46;29.97;;;7.73;;
3259;SDS011;22469;48.150;14.004;2022-11-12T03:50:16;27.17;;;7.67;;
3259;SDS011;22469;48.150;14.004;2022-11-12T03:52:47;28.00;;;8.23;;
3259;SDS011;22469;48.150;14.004;2022-11-12T03:55:18;14.00;;;7.40;;
3259;SDS011;22469;48.150;14.004;2022-11-12T03:57:48;30.97;;;9.23;;
3259;SDS011;22469;48.150;14.004;2022-11-12T04:00:16;21.87;;;8.80;;
3259;SDS011;22469;48.150;14.004;2022-11-12T04:02:45;35.33;;;8.23;;
3259;SDS011;22469;48.150;14.004;2022-11-12T04:05:12;30.30;;;7.77;;
3259;SDS011;22469;48.150;14.004;2022-11-12T04:08:13;23.47;;;7.67;;
3259;SDS011;22469;48.150;14.004;2022-11-12T04:11:12;19.57;;;7.47;;
3259;SDS011;22469;48.150;14.004;2022-11-12T04:13:41;36.30;;;8.83;;
3259;SDS011;22469;48.150;14.004;2022-11-12T04:16:14;31.77;;;7.63;;
3259;SDS011;22469;48.150;14.004;2022-11-12T04:19:06;45.83;;;9.20;;
3259;SDS011;22469;48.150;14.004;2022-11-12T04:22:00;40.43;;;9.77;;
3259;SDS011;22469;48.150;14.004;2022-11-12T04:24:31;31.83;;;7.50;;
3259;SDS011;22469;48.150;14.004;2022-11-12T04:27:29;53.70;;;10.30;;
3259;SDS011;22469;48.150;14.004;2022-11-12T04:29:59;23.33;;;7.70;;
3259;SDS011;22469;48.150;14.004;2022-11-12T04:32:49;61.67;;;9.80;;
3259;SDS011;22469;48.150;14.004;2022-11-12T04:35:20;19.47;;;8.00;;
3259;SDS011;22469;48.150;14.004;2022-11-12T04:37:50;51.83;;;9.53;;
3259;SDS011;22469;48.150;14.004;2022-11-12T04:40:18;13.97;;;9.07;;
3259;SDS011;22469;48.150;14.004;2022-11-12T04:43:14;16.93;;;7.83;;
3259;SDS011;22469;48.150;14.004;2022-11-12T04:46:02;14.33;;;6.97;;
3259;SDS011;22469;48.150;14.004;2022-11-12T04:48:30;64.10;;;11.57;;
3259;SDS011;22469;48.150;14.004;2022-11-12T04:50:58;135.17;;;17.03;;
3259;SDS011;22469;48.150;14.004;2022-11-12T04:53:28;86.37;;;12.17;;
3259;SDS011;22469;48.150;14.004;2022-11-12T04:55:57;52.87;;;9.33;;
3259;SDS011;22469;48.150;14.004;2022-11-12T04:58:25;26.40;;;8.27;;
3259;SDS011;22469;48.150;14.004;2022-11-12T05:00:52;32.30;;;8.00;;
3259;SDS011;22469;48.150;14.004;2022-11-12T05:03:20;23.03;;;8.23;;
3259;SDS011;22469;48.150;14.004;2022-11-12T05:05:47;23.20;;;7.23;;
3259;SDS011;22469;48.150;14.004;2022-11-12T05:08:14;44.53;;;9.53;;
3259;SDS011;22469;48.150;14.004;2022-11-12T05:10:41;45.20;;;8.70;;
3259;SDS011;22469;48.150;14.004;2022-11-12T05:13:08;18.00;;;6.63;;
3259;SDS011;22469;48.150;14.004;2022-11-12T05:15:35;24.83;;;7.73;;
3259;SDS011;22469;48.150;14.004;2022-11-12T05:18:02;7.77;;;6.20;;
3259;SDS011;22469;48.150;14.004;2022-11-12T05:20:29;35.80;;;8.10;;
3259;SDS011;22469;48.150;14.004;2022-11-12T05:22:56;18.43;;;7.10;;
3259;SDS011;22469;48.150;14.004;2022-11-12T05:25:33;12.13;;;6.63;;
3259;SDS011;22469;48.150;14.004;2022-11-12T05:28:01;12.03;;;6.40;;
3259;SDS011;22469;48.150;14.004;2022-11-12T05:30:32;12.80;;;6.00;;
3259;SDS011;22469;48.150;14.004;2022-11-12T05:32:59;23.13;;;5.90;;
3259;SDS011;22469;48.150;14.004;2022-11-12T05:35:26;8.57;;;6.27;;
3259;SDS011;22469;48.150;14.004;2022-11-12T05:37:53;12.73;;;7.30;;
3259;SDS011;22469;48.150;14.004;2022-11-12T05:40:20;8.50;;;5.97;;
3259;SDS011;22469;48.150;14.004;2022-11-12T05:42:47;6.73;;;6.10;;
3259;SDS011;22469;48.150;14.004;2022-11-12T05:45:14;23.57;;;9.20;;
3259;SDS011;22469;48.150;14.004;2022-11-12T05:47:41;23.33;;;8.07;;
3259;SDS011;22469;48.150;14.004;2022-11-12T05:50:08;9.57;;;6.87;;
3259;SDS011;22469;48.150;14.004;2022-11-12T05:52:35;51.87;;;11.70;;
3259;SDS011;22469;48.150;14.004;2022-11-12T05:55:02;59.13;;;11.33;;
3259;SDS011;22469;48.150;14.004;2022-11-12T05:57:29;17.73;;;7.70;;
3259;SDS011;22469;48.150;14.004;2022-11-12T05:59:56;32.07;;;9.90;;
3259;SDS011;22469;48.150;14.004;2022-11-12T06:02:23;29.27;;;9.67;;
3259;SDS011;22469;48.150;14.004;2022-11-12T06:04:50;26.73;;;8.27;;
3259;SDS011;22469;48.150;14.004;2022-11-12T06:07:17;17.03;;;6.73;;
3259;SDS011;22469;48.150;14.004;2022-11-12T06:09:47;17.87;;;6.83;;
3259;SDS011;22469;48.150;14.004;2022-11-12T06:12:14;18.90;;;7.23;;
3259;SDS011;22469;48.150;14.004;2022-11-12T06:14:40;19.40;;;7.00;;
3259;SDS011;22469;48.150;14.004;2022-11-12T06:17:08;15.67;;;7.10;;
3259;SDS011;22469;48.150;14.004;2022-11-12T06:19:35;62.13;;;10.30;;
3259;SDS011;22469;48.150;14.004;2022-11-12T06:22:02;21.90;;;6.90;;
3259;SDS011;22469;48.150;14.004;2022-11-12T06:24:29;67.87;;;9.23;;
3259;SDS011;22469;48.150;14.004;2022-11-12T06:27:00;20.27;;;8.00;;
3259;SDS011;22469;48.150;14.004;2022-11-12T06:29:28;36.33;;;8.97;;
3259;SDS011;22469;48.150;14.004;2022-11-12T06:31:55;38.97;;;9.17;;
3259;SDS011;22469;48.150;14.004;2022-11-12T06:34:22;61.33;;;9.93;;
3259;SDS011;22469;48.150;14.004;2022-11-12T06:36:49;33.13;;;8.77;;
3259;SDS011;22469;48.150;14.004;2022-11-12T06:39:16;48.40;;;9.43;;
3259;SDS011;22469;48.150;14.004;2022-11-12T06:41:44;23.10;;;7.90;;
3259;SDS011;22469;48.150;14.004;2022-11-12T06:44:11;128.87;;;13.73;;
3259;SDS011;22469;48.150;14.004;2022-11-12T06:46:43;11.43;;;7.50;;
3259;SDS011;22469;48.150;14.004;2022-11-12T06:49:10;43.33;;;10.57;;
3259;SDS011;22469;48.150;14.004;2022-11-12T06:51:37;43.47;;;10.93;;
3259;SDS011;22469;48.150;14.004;2022-11-12T06:54:05;32.77;;;8.07;;
3259;SDS011;22469;48.150;14.004;2022-11-12T06:56:32;40.40;;;11.03;;
3259;SDS011;22469;48.150;14.004;2022-11-12T06:58:59;93.17;;;13.37;;
3259;SDS011;22469;48.150;14.004;2022-11-12T07:01:26;57.00;;;11.33;;
3259;SDS011;22469;48.150;14.004;2022-11-12T07:03:53;35.67;;;10.47;;
3259;SDS011;22469;48.150;14.004;2022-11-12T07:06:20;37.87;;;8.83;;
3259;SDS011;22469;48.150;14.004;2022-11-12T07:08:47;72.27;;;15.10;;
3259;SDS011;22469;48.150;14.004;2022-11-12T07:11:16;93.67;;;18.50;;
3259;SDS011;22469;48.150;14.004;2022-11-12T07:13:45;64.17;;;12.20;;
3259;SDS011;22469;48.150;14.004;2022-11-12T07:16:13;25.77;;;8.93;;
3259;SDS011;22469;48.150;14.004;2022-11-12T07:18:44;48.93;;;9.17;;
3259;SDS011;22469;48.150;14.004;2022-11-12T07:21:17;38.97;;;10.87;;
3259;SDS011;22469;48.150;14.004;2022-11-12T07:23:46;57.13;;;12.20;;
3259;SDS011;22469;48.150;14.004;2022-11-12T07:26:14;33.90;;;9.73;;
3259;SDS011;22469;48.150;14.004;2022-11-12T07:28:50;41.27;;;8.57;;
3259;SDS011;22469;48.150;14.004;2022-11-12T07:31:18;29.47;;;9.40;;
3259;SDS011;22469;48.150;14.004;2022-11-12T07:33:46;12.03;;;7.87;;
3259;SDS011;22469;48.150;14.004;2022-11-12T07:36:18;40.40;;;11.43;;
3259;SDS011;22469;48.150;14.004;2022-11-12T07:38:50;20.37;;;9.33;;
3259;SDS011;22469;48.150;14.004;2022-11-12T07:41:22;22.70;;;10.20;;
3259;SDS011;22469;48.150;14.004;2022-11-12T07:43:51;22.57;;;9.50;;
3259;SDS011;22469;48.150;14.004;2022-11-12T07:46:20;15.10;;;7.50;;
3259;SDS011;22469;48.150;14.004;2022-11-12T07:48:50;29.53;;;9.77;;
3259;SDS011;22469;48.150;14.004;2022-11-12T07:51:20;42.67;;;12.37;;
3259;SDS011;22469;48.150;14.004;2022-11-12T07:53:51;24.50;;;9.03;;
3259;SDS011;22469;48.150;14.004;2022-11-12T07:56:25;17.63;;;9.50;;
3259;SDS011;22469;48.150;14.004;2022-11-12T07:58:53;21.73;;;9.37;;
3259;SDS011;22469;48.150;14.004;2022-11-12T08:01:33;23.30;;;10.13;;
3259;SDS011;22469;48.150;14.004;2022-11-12T08:04:05;32.03;;;9.80;;
3259;SDS011;22469;48.150;14.004;2022-11-12T08:06:35;24.40;;;10.97;;
3259;SDS011;22469;48.150;14.004;2022-11-12T08:09:04;27.77;;;11.10;;
3259;SDS011;22469;48.150;14.004;2022-11-12T08:11:33;29.37;;;11.50;;
3259;SDS011;22469;48.150;14.004;2022-11-12T08:14:01;36.07;;;11.23;;
3259;SDS011;22469;48.150;14.004;2022-11-12T08:16:28;34.83;;;11.73;;
3259;SDS011;22469;48.150;14.004;2022-11-12T08:18:56;21.63;;;11.70;;
3259;SDS011;22469;48.150;14.004;2022-11-12T08:21:23;24.47;;;11.80;;
3259;SDS011;22469;48.150;14.004;2022-11-12T08:23:50;52.10;;;13.73;;
3259;SDS011;22469;48.150;14.004;2022-11-12T08:26:18;30.63;;;12.77;;
3259;SDS011;22469;48.150;14.004;2022-11-12T08:28:46;24.60;;;12.17;;
3259;SDS011;22469;48.150;14.004;2022-11-12T08:31:15;15.43;;;11.40;;
3259;SDS011;22469;48.150;14.004;2022-11-12T08:33:45;24.63;;;12.17;;
3259;SDS011;22469;48.150;14.004;2022-11-12T08:36:13;70.33;;;17.00;;
3259;SDS011;22469;48.150;14.004;2022-11-12T08:38:42;33.40;;;14.07;;
3259;SDS011;22469;48.150;14.004;2022-11-12T08:41:11;35.37;;;14.23;;
3259;SDS011;22469;48.150;14.004;2022-11-12T08:43:40;21.60;;;14.37;;
3259;SDS011;22469;48.150;14.004;2022-11-12T08:46:08;24.97;;;13.40;;
3259;SDS011;22469;48.150;14.004;2022-11-12T08:48:36;31.83;;;14.13;;
3259;SDS011;22469;48.150;14.004;2022-11-12T08:51:05;21.27;;;13.00;;
3259;SDS011;22469;48.150;14.004;2022-11-12T08:53:33;29.77;;;12.93;;
3259;SDS011;22469;48.150;14.004;2022-11-12T08:56:01;43.80;;;16.53;;
3259;SDS011;22469;48.150;14.004;2022-11-12T08:58:28;28.70;;;15.90;;
3259;SDS011;22469;48.150;14.004;2022-11-12T09:00:55;25.10;;;15.10;;
3259;SDS011;22469;48.150;14.004;2022-11-12T09:03:24;25.80;;;14.87;;
3259;SDS011;22469;48.150;14.004;2022-11-12T09:05:52;27.03;;;16.50;;
3259;SDS011;22469;48.150;14.004;2022-11-12T09:08:20;20.77;;;14.67;;
3259;SDS011;22469;48.150;14.004;2022-11-12T09:10:50;23.07;;;15.23;;
3259;SDS011;22469;48.150;14.004;2022-11-12T09:13:17;39.03;;;15.93;;
3259;SDS011;22469;48.150;14.004;2022-11-12T09:15:45;34.40;;;15.73;;
3259;SDS011;22469;48.150;14.004;2022-11-12T09:18:13;38.13;;;16.90;;
3259;SDS011;22469;48.150;14.004;2022-11-12T09:20:44;24.63;;;15.90;;
3259;SDS011;22469;48.150;14.004;2022-11-12T09:23:13;20.17;;;15.20;;
3259;SDS011;22469;48.150;14.004;2022-11-12T09:25:43;25.67;;;17.83;;
3259;SDS011;22469;48.150;14.004;2022-11-12T09:30:46;28.53;;;18.03;;
3259;SDS011;22469;48.150;14.004;2022-11-12T09:33:21;22.27;;;19.83;;
3259;SDS011;22469;48.150;14.004;2022-11-12T09:35:59;25.43;;;19.00;;
3259;SDS011;22469;48.150;14.004;2022-11-12T09:38:28;31.63;;;20.57;;
3259;SDS011;22469;48.150;14.004;2022-11-12T09:41:10;31.93;;;20.87;;
3259;SDS011;22469;48.150;14.004;2022-11-12T09:44:17;24.37;;;18.87;;
3259;SDS011;22469;48.150;14.004;2022-11-12T09:46:58;27.40;;;20.13;;
3259;SDS011;22469;48.150;14.004;2022-11-12T09:52:30;30.47;;;20.93;;
3259;SDS011;22469;48.150;14.004;2022-11-12T09:55:01;30.70;;;22.73;;
3259;SDS011;22469;48.150;14.004;2022-11-12T09:57:39;28.80;;;21.70;;
3259;SDS011;22469;48.150;14.004;2022-11-12T10:00:16;31.27;;;22.63;;
3259;SDS011;22469;48.150;14.004;2022-11-12T10:05:35;34.00;;;25.97;;
3259;SDS011;22469;48.150;14.004;2022-11-12T10:11:04;32.40;;;23.70;;
3259;SDS011;22469;48.150;14.004;2022-11-12T10:13:46;29.97;;;23.87;;
3259;SDS011;22469;48.150;14.004;2022-11-12T10:16:53;31.87;;;22.90;;
3259;SDS011;22469;48.150;14.004;2022-11-12T10:25:29;45.77;;;27.00;;
3259;SDS011;22469;48.150;14.004;2022-11-12T10:27:58;32.47;;;25.27;;
3259;SDS011;22469;48.150;14.004;2022-11-12T10:30:38;33.20;;;23.30;;
3259;SDS011;22469;48.150;14.004;2022-11-12T10:33:09;32.77;;;26.70;;
3259;SDS011;22469;48.150;14.004;2022-11-12T10:35:40;31.10;;;25.17;;
3259;SDS011;22469;48.150;14.004;2022-11-12T10:38:11;29.50;;;23.67;;
3259;SDS011;22469;48.150;14.004;2022-11-12T10:40:53;27.90;;;22.07;;
3259;SDS011;22469;48.150;14.004;2022-11-12T10:43:21;30.10;;;24.30;;
3259;SDS011;22469;48.150;14.004;2022-11-12T10:45:50;31.07;;;24.60;;
3259;SDS011;22469;48.150;14.004;2022-11-12T10:50:59;32.10;;;24.50;;
3259;SDS011;22469;48.150;14.004;2022-11-12T10:56:02;31.80;;;24.00;;
3259;SDS011;22469;48.150;14.004;2022-11-12T11:01:35;29.23;;;25.00;;
3259;SDS011;22469;48.150;14.004;2022-11-12T11:04:18;30.93;;;23.73;;
3259;SDS011;22469;48.150;14.004;2022-11-12T11:09:33;25.33;;;22.23;;
3259;SDS011;22469;48.150;14.004;2022-11-12T11:12:00;31.00;;;23.63;;
3259;SDS011;22469;48.150;14.004;2022-11-12T11:14:32;27.80;;;22.30;;
3259;SDS011;22469;48.150;14.004;2022-11-12T11:17:02;26.40;;;22.07;;
3259;SDS011;22469;48.150;14.004;2022-11-12T11:19:35;27.00;;;22.83;;
3259;SDS011;22469;48.150;14.004;2022-11-12T11:25:20;26.37;;;21.87;;
3259;SDS011;22469;48.150;14.004;2022-11-12T11:28:00;29.07;;;23.07;;
3259;SDS011;22469;48.150;14.004;2022-11-12T11:31:01;27.10;;;21.00;;
3259;SDS011;22469;48.150;14.004;2022-11-12T11:34:32;32.27;;;23.57;;
3259;SDS011;22469;48.150;14.004;2022-11-12T11:40:02;26.37;;;21.53;;
3259;SDS011;22469;48.150;14.004;2022-11-12T11:42:56;27.63;;;21.90;;
3259;SDS011;22469;48.150;14.004;2022-11-12T11:48:56;26.63;;;21.90;;
3259;SDS011;22469;48.150;14.004;2022-11-12T11:52:25;25.80;;;22.87;;
3259;SDS011;22469;48.150;14.004;2022-11-12T12:01:00;27.07;;;21.70;;
3259;SDS011;22469;48.150;14.004;2022-11-12T12:06:25;24.43;;;21.03;;
3259;SDS011;22469;48.150;14.004;2022-11-12T12:25:16;20.83;;;18.60;;
3259;SDS011;22469;48.150;14.004;2022-11-12T12:30:42;18.33;;;16.50;;
3259;SDS011;22469;48.150;14.004;2022-11-12T12:33:28;19.77;;;16.53;;
3259;SDS011;22469;48.150;14.004;2022-11-12T12:36:11;20.57;;;17.10;;
3259;SDS011;22469;48.150;14.004;2022-11-12T12:41:58;17.87;;;15.97;;
3259;SDS011;22469;48.150;14.004;2022-11-12T12:44:49;20.10;;;17.07;;
3259;SDS011;22469;48.150;14.004;2022-11-12T12:47:33;20.93;;;18.17;;
3259;SDS011;22469;48.150;14.004;2022-11-12T12:50:06;19.50;;;17.50;;
3259;SDS011;22469;48.150;14.004;2022-11-12T12:52:58;21.87;;;17.07;;
3259;SDS011;22469;48.150;14.004;2022-11-12T13:09:19;23.37;;;20.73;;
3259;SDS011;22469;48.150;14.004;2022-11-12T13:11:52;26.10;;;20.80;;
3259;SDS011;22469;48.150;14.004;2022-11-12T13:17:00;23.70;;;21.00;;
3259;SDS011;22469;48.150;14.004;2022-11-12T13:20:17;26.77;;;21.60;;
3259;SDS011;22469;48.150;14.004;2022-11-12T13:23:07;24.10;;;20.07;;
3259;SDS011;22469;48.150;14.004;2022-11-12T13:25:37;21.53;;;18.23;;
3259;SDS011;22469;48.150;14.004;2022-11-12T13:28:06;25.37;;;20.87;;
3259;SDS011;22469;48.150;14.004;2022-11-12T13:33:16;29.07;;;24.00;;
3259;SDS011;22469;48.150;14.004;2022-11-12T13:36:15;27.40;;;21.87;;
3259;SDS011;22469;48.150;14.004;2022-11-12T13:38:56;26.53;;;22.50;;
3259;SDS011;22469;48.150;14.004;2022-11-12T13:41:40;24.23;;;21.60;;
3259;SDS011;22469;48.150;14.004;2022-11-12T13:44:26;26.73;;;21.80;;
3259;SDS011;22469;48.150;14.004;2022-11-12T13:46:54;27.47;;;22.30;;
3259;SDS011;22469;48.150;14.004;2022-11-12T13:49:22;27.10;;;23.00;;
3259;SDS011;22469;48.150;14.004;2022-11-12T13:51:49;30.40;;;24.47;;
3259;SDS011;22469;48.150;14.004;2022-11-12T13:57:13;29.50;;;23.03;;
3259;SDS011;22469;48.150;14.004;2022-11-12T14:00:06;32.53;;;24.00;;
3259;SDS011;22469;48.150;14.004;2022-11-12T14:02:43;25.53;;;21.90;;
3259;SDS011;22469;48.150;14.004;2022-11-12T14:05:18;32.13;;;23.57;;
3259;SDS011;22469;48.150;14.004;2022-11-12T14:14:18;32.00;;;24.37;;
3259;SDS011;22469;48.150;14.004;2022-11-12T14:22:52;25.77;;;21.80;;
3259;SDS011;22469;48.150;14.004;2022-11-12T14:25:24;29.37;;;22.70;;
3259;SDS011;22469;48.150;14.004;2022-11-12T14:27:54;28.17;;;21.10;;
3259;SDS011;22469;48.150;14.004;2022-11-12T14:30:23;22.53;;;19.83;;
3259;SDS011;22469;48.150;14.004;2022-11-12T14:32:58;27.20;;;21.50;;
3259;SDS011;22469;48.150;14.004;2022-11-12T14:35:37;24.23;;;20.80;;
3259;SDS011;22469;48.150;14.004;2022-11-12T14:40:35;24.73;;;21.77;;
3259;SDS011;22469;48.150;14.004;2022-11-12T14:43:19;26.30;;;22.20;;
3259;SDS011;22469;48.150;14.004;2022-11-12T14:45:54;24.10;;;19.50;;
3259;SDS011;22469;48.150;14.004;2022-11-12T14:48:24;27.63;;;22.23;;
3259;SDS011;22469;48.150;14.004;2022-11-12T14:51:10;34.13;;;29.80;;
3259;SDS011;22469;48.150;14.004;2022-11-12T14:53:40;23.47;;;21.07;;
3259;SDS011;22469;48.150;14.004;2022-11-12T14:56:24;21.57;;;19.37;;
3259;SDS011;22469;48.150;14.004;2022-11-12T14:59:04;22.43;;;20.03;;
3259;SDS011;22469;48.150;14.004;2022-11-12T15:01:35;26.90;;;20.60;;
3259;SDS011;22469;48.150;14.004;2022-11-12T15:04:33;26.67;;;22.50;;
3259;SDS011;22469;48.150;14.004;2022-11-12T15:07:04;27.13;;;21.30;;
3259;SDS011;22469;48.150;14.004;2022-11-12T15:09:36;24.17;;;21.13;;
3259;SDS011;22469;48.150;14.004;2022-11-12T15:12:06;23.27;;;18.70;;
3259;SDS011;22469;48.150;14.004;2022-11-12T15:14:53;24.17;;;21.30;;
3259;SDS011;22469;48.150;14.004;2022-11-12T15:17:43;31.77;;;23.57;;
3259;SDS011;22469;48.150;14.004;2022-11-12T15:20:12;31.63;;;24.60;;
3259;SDS011;22469;48.150;14.004;2022-11-12T15:22:48;41.90;;;32.37;;
3259;SDS011;22469;48.150;14.004;2022-11-12T15:25:23;30.60;;;23.67;;
3259;SDS011;22469;48.150;14.004;2022-11-12T15:31:49;25.23;;;20.17;;
3259;SDS011;22469;48.150;14.004;2022-11-12T15:37:06;27.30;;;22.03;;
3259;SDS011;22469;48.150;14.004;2022-11-12T15:39:44;27.10;;;23.60;;
3259;SDS011;22469;48.150;14.004;2022-11-12T15:42:23;39.77;;;24.93;;
3259;SDS011;22469;48.150;14.004;2022-11-12T15:44:59;34.47;;;25.43;;
3259;SDS011;22469;48.150;14.004;2022-11-12T15:47:30;41.67;;;25.50;;
3259;SDS011;22469;48.150;14.004;2022-11-12T15:49:59;39.97;;;29.23;;
3259;SDS011;22469;48.150;14.004;2022-11-12T15:52:26;53.53;;;27.30;;
3259;SDS011;22469;48.150;14.004;2022-11-12T15:54:54;53.83;;;29.20;;
3259;SDS011;22469;48.150;14.004;2022-11-12T15:57:26;45.13;;;28.00;;
3259;SDS011;22469;48.150;14.004;2022-11-12T16:00:01;46.60;;;29.13;;
3259;SDS011;22469;48.150;14.004;2022-11-12T16:02:36;44.67;;;29.10;;
3259;SDS011;22469;48.150;14.004;2022-11-12T16:05:05;44.10;;;29.10;;
3259;SDS011;22469;48.150;14.004;2022-11-12T16:07:43;62.83;;;36.70;;
3259;SDS011;22469;48.150;14.004;2022-11-12T16:10:14;73.73;;;39.63;;
3259;SDS011;22469;48.150;14.004;2022-11-12T16:12:44;51.33;;;31.83;;
3259;SDS011;22469;48.150;14.004;2022-11-12T16:15:14;72.13;;;29.30;;
3259;SDS011;22469;48.150;14.004;2022-11-12T16:17:48;53.20;;;26.43;;
3259;SDS011;22469;48.150;14.004;2022-11-12T16:20:20;41.33;;;26.60;;
3259;SDS011;22469;48.150;14.004;2022-11-12T16:22:54;56.83;;;32.57;;
3259;SDS011;22469;48.150;14.004;2022-11-12T16:25:22;54.17;;;28.43;;
3259;SDS011;22469;48.150;14.004;2022-11-12T16:27:55;62.60;;;30.97;;
3259;SDS011;22469;48.150;14.004;2022-11-12T16:30:24;59.00;;;29.07;;
3259;SDS011;22469;48.150;14.004;2022-11-12T16:32:56;61.17;;;28.40;;
3259;SDS011;22469;48.150;14.004;2022-11-12T16:35:27;73.23;;;26.00;;
3259;SDS011;22469;48.150;14.004;2022-11-12T16:38:02;44.00;;;25.90;;
3259;SDS011;22469;48.150;14.004;2022-11-12T16:40:30;50.93;;;27.20;;
3259;SDS011;22469;48.150;14.004;2022-11-12T16:43:00;66.57;;;31.40;;
3259;SDS011;22469;48.150;14.004;2022-11-12T16:45:34;66.87;;;29.50;;
3259;SDS011;22469;48.150;14.004;2022-11-12T16:48:12;60.87;;;28.67;;